sensor_id;sensor_type;location;lat;lon;timestamp;temperature;humidity
24262;DHT22;12385;51.412;5.540;2023-05-07T00:01:24;16.40;99.90
24262;DHT22;12385;51.412;5.540;2023-05-07T00:03:50;16.30;99.90
24262;DHT22;12385;51.412;5.540;2023-05-07T00:06:15;16.30;99.90
24262;DHT22;12385;51.412;5.540;2023-05-07T00:08:41;16.30;99.90
24262;DHT22;12385;51.412;5.540;2023-05-07T00:11:06;16.40;99.90
24262;DHT22;12385;51.412;5.540;2023-05-07T00:13:33;16.40;99.90
24262;DHT22;12385;51.412;5.540;2023-05-07T00:16:02;16.40;99.90
24262;DHT22;12385;51.412;5.540;2023-05-07T00:18:27;16.40;99.90
24262;DHT22;12385;51.412;5.540;2023-05-07T00:20:53;16.40;99.90
24262;DHT22;12385;51.412;5.540;2023-05-07T00:23:19;16.40;99.90
24262;DHT22;12385;51.412;5.540;2023-05-07T00:25:45;16.40;99.90
24262;DHT22;12385;51.412;5.540;2023-05-07T00:28:10;16.30;99.90
24262;DHT22;12385;51.412;5.540;2023-05-07T00:30:36;16.30;99.90
24262;DHT22;12385;51.412;5.540;2023-05-07T00:33:01;16.30;99.90
24262;DHT22;12385;51.412;5.540;2023-05-07T00:35:28;16.20;99.90
24262;DHT22;12385;51.412;5.540;2023-05-07T00:37:54;16.20;99.90
24262;DHT22;12385;51.412;5.540;2023-05-07T00:40:20;16.10;99.90
24262;DHT22;12385;51.412;5.540;2023-05-07T00:42:46;16.10;99.90
24262;DHT22;12385;51.412;5.540;2023-05-07T00:45:13;16.10;99.90
24262;DHT22;12385;51.412;5.540;2023-05-07T00:47:39;16.10;99.90
24262;DHT22;12385;51.412;5.540;2023-05-07T00:50:06;16.10;99.90
24262;DHT22;12385;51.412;5.540;2023-05-07T00:52:32;16.10;99.90
24262;DHT22;12385;51.412;5.540;2023-05-07T00:55:01;16.10;99.90
24262;DHT22;12385;51.412;5.540;2023-05-07T00:57:29;16.10;99.90
24262;DHT22;12385;51.412;5.540;2023-05-07T00:59:57;16.10;99.90
24262;DHT22;12385;51.412;5.540;2023-05-07T01:02:23;16.10;99.90
24262;DHT22;12385;51.412;5.540;2023-05-07T01:04:49;16.10;99.90
24262;DHT22;12385;51.412;5.540;2023-05-07T01:07:15;16.10;99.90
24262;DHT22;12385;51.412;5.540;2023-05-07T01:09:41;16.10;99.90
24262;DHT22;12385;51.412;5.540;2023-05-07T01:12:07;16.10;99.90
24262;DHT22;12385;51.412;5.540;2023-05-07T01:14:34;16.10;99.90
24262;DHT22;12385;51.412;5.540;2023-05-07T01:16:59;16.10;99.90
24262;DHT22;12385;51.412;5.540;2023-05-07T01:19:25;16.10;99.90
24262;DHT22;12385;51.412;5.540;2023-05-07T01:22:00;16.10;99.90
24262;DHT22;12385;51.412;5.540;2023-05-07T01:24:26;16.00;99.90
24262;DHT22;12385;51.412;5.540;2023-05-07T01:26:52;16.00;99.90
24262;DHT22;12385;51.412;5.540;2023-05-07T01:29:17;15.90;99.90
24262;DHT22;12385;51.412;5.540;2023-05-07T01:31:44;15.90;99.90
24262;DHT22;12385;51.412;5.540;2023-05-07T01:34:11;15.90;99.90
24262;DHT22;12385;51.412;5.540;2023-05-07T01:36:38;15.90;99.90
24262;DHT22;12385;51.412;5.540;2023-05-07T01:39:06;15.80;99.90
24262;DHT22;12385;51.412;5.540;2023-05-07T01:41:32;15.90;99.90
24262;DHT22;12385;51.412;5.540;2023-05-07T01:43:58;15.90;99.90
24262;DHT22;12385;51.412;5.540;2023-05-07T01:46:25;15.90;99.90
24262;DHT22;12385;51.412;5.540;2023-05-07T01:48:51;15.80;99.90
24262;DHT22;12385;51.412;5.540;2023-05-07T01:51:17;15.90;99.90
24262;DHT22;12385;51.412;5.540;2023-05-07T01:53:42;15.90;99.90
24262;DHT22;12385;51.412;5.540;2023-05-07T01:56:09;15.90;99.90
24262;DHT22;12385;51.412;5.540;2023-05-07T01:58:34;15.90;99.90
24262;DHT22;12385;51.412;5.540;2023-05-07T02:01:00;15.80;99.90
24262;DHT22;12385;51.412;5.540;2023-05-07T02:03:27;15.80;99.90
24262;DHT22;12385;51.412;5.540;2023-05-07T02:05:52;15.80;99.90
24262;DHT22;12385;51.412;5.540;2023-05-07T02:08:18;15.80;99.90
24262;DHT22;12385;51.412;5.540;2023-05-07T02:10:43;15.80;99.90
24262;DHT22;12385;51.412;5.540;2023-05-07T02:13:09;15.80;99.90
24262;DHT22;12385;51.412;5.540;2023-05-07T02:15:34;15.80;99.90
24262;DHT22;12385;51.412;5.540;2023-05-07T02:18:08;15.80;99.90
24262;DHT22;12385;51.412;5.540;2023-05-07T02:20:34;15.80;99.90
24262;DHT22;12385;51.412;5.540;2023-05-07T02:23:00;15.80;99.90
24262;DHT22;12385;51.412;5.540;2023-05-07T02:25:26;15.80;99.90
24262;DHT22;12385;51.412;5.540;2023-05-07T02:27:52;15.80;99.90
24262;DHT22;12385;51.412;5.540;2023-05-07T02:30:18;15.70;99.90
24262;DHT22;12385;51.412;5.540;2023-05-07T02:32:46;15.70;99.90
24262;DHT22;12385;51.412;5.540;2023-05-07T02:35:12;15.70;99.90
24262;DHT22;12385;51.412;5.540;2023-05-07T02:37:37;15.70;99.90
24262;DHT22;12385;51.412;5.540;2023-05-07T02:40:03;15.70;99.90
24262;DHT22;12385;51.412;5.540;2023-05-07T02:42:29;15.70;99.90
24262;DHT22;12385;51.412;5.540;2023-05-07T02:44:55;15.70;99.90
24262;DHT22;12385;51.412;5.540;2023-05-07T02:47:21;15.70;99.90
24262;DHT22;12385;51.412;5.540;2023-05-07T02:49:48;15.70;99.90
24262;DHT22;12385;51.412;5.540;2023-05-07T02:52:13;15.70;99.90
24262;DHT22;12385;51.412;5.540;2023-05-07T02:54:39;15.70;99.90
24262;DHT22;12385;51.412;5.540;2023-05-07T02:57:04;15.70;99.90
24262;DHT22;12385;51.412;5.540;2023-05-07T02:59:30;15.70;99.90
24262;DHT22;12385;51.412;5.540;2023-05-07T03:01:55;15.70;99.90
24262;DHT22;12385;51.412;5.540;2023-05-07T03:04:21;15.70;99.90
24262;DHT22;12385;51.412;5.540;2023-05-07T03:06:46;15.70;99.90
24262;DHT22;12385;51.412;5.540;2023-05-07T03:09:12;15.70;99.90
24262;DHT22;12385;51.412;5.540;2023-05-07T03:11:38;15.70;99.90
24262;DHT22;12385;51.412;5.540;2023-05-07T03:14:03;15.70;99.90
24262;DHT22;12385;51.412;5.540;2023-05-07T03:16:29;15.60;99.90
24262;DHT22;12385;51.412;5.540;2023-05-07T03:18:54;15.70;99.90
24262;DHT22;12385;51.412;5.540;2023-05-07T03:21:20;15.70;99.90
24262;DHT22;12385;51.412;5.540;2023-05-07T03:23:46;15.70;99.90
24262;DHT22;12385;51.412;5.540;2023-05-07T03:26:11;15.60;99.90
24262;DHT22;12385;51.412;5.540;2023-05-07T03:28:37;15.60;99.90
24262;DHT22;12385;51.412;5.540;2023-05-07T03:31:02;15.60;99.90
24262;DHT22;12385;51.412;5.540;2023-05-07T03:33:28;15.60;99.90
24262;DHT22;12385;51.412;5.540;2023-05-07T03:35:54;15.60;99.90
24262;DHT22;12385;51.412;5.540;2023-05-07T03:38:20;15.60;99.90
24262;DHT22;12385;51.412;5.540;2023-05-07T03:40:45;15.50;99.90
24262;DHT22;12385;51.412;5.540;2023-05-07T03:43:11;15.50;99.90
24262;DHT22;12385;51.412;5.540;2023-05-07T03:45:36;15.60;99.90
24262;DHT22;12385;51.412;5.540;2023-05-07T03:48:02;15.60;99.90
24262;DHT22;12385;51.412;5.540;2023-05-07T03:50:28;15.60;99.90
24262;DHT22;12385;51.412;5.540;2023-05-07T03:52:53;15.60;99.90
24262;DHT22;12385;51.412;5.540;2023-05-07T03:55:19;15.60;99.90
24262;DHT22;12385;51.412;5.540;2023-05-07T03:57:45;15.60;99.90
24262;DHT22;12385;51.412;5.540;2023-05-07T04:00:11;15.60;99.90
24262;DHT22;12385;51.412;5.540;2023-05-07T04:02:37;15.60;99.90
24262;DHT22;12385;51.412;5.540;2023-05-07T04:05:02;15.60;99.90
24262;DHT22;12385;51.412;5.540;2023-05-07T04:07:28;15.50;99.90
24262;DHT22;12385;51.412;5.540;2023-05-07T04:09:54;15.50;99.90
24262;DHT22;12385;51.412;5.540;2023-05-07T04:12:19;15.50;99.90
24262;DHT22;12385;51.412;5.540;2023-05-07T04:14:45;15.50;99.90
24262;DHT22;12385;51.412;5.540;2023-05-07T04:17:10;15.60;99.90
24262;DHT22;12385;51.412;5.540;2023-05-07T04:19:36;15.50;99.90
24262;DHT22;12385;51.412;5.540;2023-05-07T04:22:01;15.60;99.90
24262;DHT22;12385;51.412;5.540;2023-05-07T04:24:30;15.60;99.90
24262;DHT22;12385;51.412;5.540;2023-05-07T04:26:56;15.60;99.90
24262;DHT22;12385;51.412;5.540;2023-05-07T04:29:21;15.60;99.90
24262;DHT22;12385;51.412;5.540;2023-05-07T04:31:47;15.60;99.90
24262;DHT22;12385;51.412;5.540;2023-05-07T04:34:12;15.60;99.90
24262;DHT22;12385;51.412;5.540;2023-05-07T04:36:39;15.60;99.90
24262;DHT22;12385;51.412;5.540;2023-05-07T04:39:05;15.60;99.90
24262;DHT22;12385;51.412;5.540;2023-05-07T04:41:31;15.50;99.90
24262;DHT22;12385;51.412;5.540;2023-05-07T04:43:57;15.50;99.90
24262;DHT22;12385;51.412;5.540;2023-05-07T04:46:24;15.50;99.90
24262;DHT22;12385;51.412;5.540;2023-05-07T04:48:51;15.50;99.90
24262;DHT22;12385;51.412;5.540;2023-05-07T04:51:16;15.60;99.90
24262;DHT22;12385;51.412;5.540;2023-05-07T04:53:42;15.60;99.90
24262;DHT22;12385;51.412;5.540;2023-05-07T04:56:08;15.50;99.90
24262;DHT22;12385;51.412;5.540;2023-05-07T04:58:34;15.60;99.90
24262;DHT22;12385;51.412;5.540;2023-05-07T05:00:59;15.60;99.90
24262;DHT22;12385;51.412;5.540;2023-05-07T05:03:25;15.60;99.90
24262;DHT22;12385;51.412;5.540;2023-05-07T05:05:51;15.60;99.90
24262;DHT22;12385;51.412;5.540;2023-05-07T05:08:19;15.60;99.90
24262;DHT22;12385;51.412;5.540;2023-05-07T05:10:44;15.60;99.90
24262;DHT22;12385;51.412;5.540;2023-05-07T05:13:10;15.60;99.90
24262;DHT22;12385;51.412;5.540;2023-05-07T05:15:38;15.70;99.90
24262;DHT22;12385;51.412;5.540;2023-05-07T05:18:04;15.70;99.90
24262;DHT22;12385;51.412;5.540;2023-05-07T05:20:29;15.70;99.90
24262;DHT22;12385;51.412;5.540;2023-05-07T05:22:55;15.70;99.90
24262;DHT22;12385;51.412;5.540;2023-05-07T05:25:21;15.70;99.90
24262;DHT22;12385;51.412;5.540;2023-05-07T05:27:46;15.70;99.90
24262;DHT22;12385;51.412;5.540;2023-05-07T05:30:12;15.70;99.90
24262;DHT22;12385;51.412;5.540;2023-05-07T05:32:38;15.70;99.90
24262;DHT22;12385;51.412;5.540;2023-05-07T05:35:04;15.70;99.90
24262;DHT22;12385;51.412;5.540;2023-05-07T05:37:31;15.70;99.90
24262;DHT22;12385;51.412;5.540;2023-05-07T05:39:56;15.70;99.90
24262;DHT22;12385;51.412;5.540;2023-05-07T05:42:22;15.80;99.90
24262;DHT22;12385;51.412;5.540;2023-05-07T05:44:48;15.80;99.90
24262;DHT22;12385;51.412;5.540;2023-05-07T05:47:14;15.80;99.90
24262;DHT22;12385;51.412;5.540;2023-05-07T05:49:39;15.80;99.90
24262;DHT22;12385;51.412;5.540;2023-05-07T05:52:06;15.80;99.90
24262;DHT22;12385;51.412;5.540;2023-05-07T05:54:31;15.90;99.90
24262;DHT22;12385;51.412;5.540;2023-05-07T05:56:57;15.90;99.90
24262;DHT22;12385;51.412;5.540;2023-05-07T05:59:23;15.90;99.90
24262;DHT22;12385;51.412;5.540;2023-05-07T06:01:48;16.00;99.90
24262;DHT22;12385;51.412;5.540;2023-05-07T06:04:14;16.00;99.90
24262;DHT22;12385;51.412;5.540;2023-05-07T06:06:40;16.00;99.90
24262;DHT22;12385;51.412;5.540;2023-05-07T06:09:05;16.00;99.90
24262;DHT22;12385;51.412;5.540;2023-05-07T06:11:31;16.10;99.90
24262;DHT22;12385;51.412;5.540;2023-05-07T06:13:57;16.10;99.90
24262;DHT22;12385;51.412;5.540;2023-05-07T06:16:24;16.20;99.90
24262;DHT22;12385;51.412;5.540;2023-05-07T06:18:50;16.20;99.90
24262;DHT22;12385;51.412;5.540;2023-05-07T06:21:16;16.30;99.90
24262;DHT22;12385;51.412;5.540;2023-05-07T06:23:41;16.30;99.90
24262;DHT22;12385;51.412;5.540;2023-05-07T06:26:07;16.40;99.90
24262;DHT22;12385;51.412;5.540;2023-05-07T06:28:33;16.40;99.90
24262;DHT22;12385;51.412;5.540;2023-05-07T06:31:18;16.50;99.90
24262;DHT22;12385;51.412;5.540;2023-05-07T06:33:48;16.50;99.90
24262;DHT22;12385;51.412;5.540;2023-05-07T06:36:14;16.60;99.90
24262;DHT22;12385;51.412;5.540;2023-05-07T06:38:40;16.60;99.90
24262;DHT22;12385;51.412;5.540;2023-05-07T06:41:06;16.60;99.90
24262;DHT22;12385;51.412;5.540;2023-05-07T06:43:32;16.70;99.90
24262;DHT22;12385;51.412;5.540;2023-05-07T06:45:58;16.70;99.90
24262;DHT22;12385;51.412;5.540;2023-05-07T06:48:23;16.80;99.90
24262;DHT22;12385;51.412;5.540;2023-05-07T06:50:49;16.80;99.90
24262;DHT22;12385;51.412;5.540;2023-05-07T06:53:15;16.90;99.90
24262;DHT22;12385;51.412;5.540;2023-05-07T06:55:40;16.90;99.90
24262;DHT22;12385;51.412;5.540;2023-05-07T06:58:07;17.00;99.90
24262;DHT22;12385;51.412;5.540;2023-05-07T07:00:33;17.00;99.90
24262;DHT22;12385;51.412;5.540;2023-05-07T07:02:58;17.00;99.90
24262;DHT22;12385;51.412;5.540;2023-05-07T07:05:25;17.10;99.90
24262;DHT22;12385;51.412;5.540;2023-05-07T07:07:51;17.10;99.90
24262;DHT22;12385;51.412;5.540;2023-05-07T07:10:20;17.20;99.90
24262;DHT22;12385;51.412;5.540;2023-05-07T07:12:45;17.20;99.90
24262;DHT22;12385;51.412;5.540;2023-05-07T07:15:11;17.20;99.90
24262;DHT22;12385;51.412;5.540;2023-05-07T07:17:37;17.20;99.90
24262;DHT22;12385;51.412;5.540;2023-05-07T07:20:03;17.20;99.90
24262;DHT22;12385;51.412;5.540;2023-05-07T07:22:29;17.30;99.90
24262;DHT22;12385;51.412;5.540;2023-05-07T07:24:54;17.30;99.90
24262;DHT22;12385;51.412;5.540;2023-05-07T07:27:20;17.40;99.90
24262;DHT22;12385;51.412;5.540;2023-05-07T07:29:45;17.30;99.90
24262;DHT22;12385;51.412;5.540;2023-05-07T07:32:11;17.40;99.90
24262;DHT22;12385;51.412;5.540;2023-05-07T07:34:39;17.40;99.90
24262;DHT22;12385;51.412;5.540;2023-05-07T07:37:05;17.50;99.90
24262;DHT22;12385;51.412;5.540;2023-05-07T07:39:32;17.60;99.90
24262;DHT22;12385;51.412;5.540;2023-05-07T07:41:58;17.60;99.90
24262;DHT22;12385;51.412;5.540;2023-05-07T07:44:23;17.70;99.90
24262;DHT22;12385;51.412;5.540;2023-05-07T07:46:49;17.70;99.90
24262;DHT22;12385;51.412;5.540;2023-05-07T07:49:16;17.80;99.90
24262;DHT22;12385;51.412;5.540;2023-05-07T07:51:42;17.80;99.90
24262;DHT22;12385;51.412;5.540;2023-05-07T07:54:08;17.90;99.90
24262;DHT22;12385;51.412;5.540;2023-05-07T07:56:41;17.90;99.90
24262;DHT22;12385;51.412;5.540;2023-05-07T07:59:07;18.00;99.90
24262;DHT22;12385;51.412;5.540;2023-05-07T08:01:32;18.00;99.90
24262;DHT22;12385;51.412;5.540;2023-05-07T08:04:06;18.10;99.90
24262;DHT22;12385;51.412;5.540;2023-05-07T08:06:32;18.20;99.90
24262;DHT22;12385;51.412;5.540;2023-05-07T08:08:58;18.30;99.90
24262;DHT22;12385;51.412;5.540;2023-05-07T08:11:29;18.30;99.90
24262;DHT22;12385;51.412;5.540;2023-05-07T08:13:55;18.30;99.90
24262;DHT22;12385;51.412;5.540;2023-05-07T08:16:21;18.40;99.90
24262;DHT22;12385;51.412;5.540;2023-05-07T08:18:47;18.50;99.90
24262;DHT22;12385;51.412;5.540;2023-05-07T08:21:12;18.50;99.90
24262;DHT22;12385;51.412;5.540;2023-05-07T08:23:38;18.60;99.90
24262;DHT22;12385;51.412;5.540;2023-05-07T08:26:10;18.70;99.90
24262;DHT22;12385;51.412;5.540;2023-05-07T08:28:35;18.80;99.90
24262;DHT22;12385;51.412;5.540;2023-05-07T08:31:01;19.00;99.90
24262;DHT22;12385;51.412;5.540;2023-05-07T08:33:27;19.10;99.90
24262;DHT22;12385;51.412;5.540;2023-05-07T08:35:54;19.20;99.90
24262;DHT22;12385;51.412;5.540;2023-05-07T08:38:19;19.30;99.90
24262;DHT22;12385;51.412;5.540;2023-05-07T08:40:45;19.40;99.90
24262;DHT22;12385;51.412;5.540;2023-05-07T08:43:13;19.50;99.90
24262;DHT22;12385;51.412;5.540;2023-05-07T08:45:40;19.50;99.90
24262;DHT22;12385;51.412;5.540;2023-05-07T08:48:10;19.50;99.90
24262;DHT22;12385;51.412;5.540;2023-05-07T08:50:40;19.40;99.90
24262;DHT22;12385;51.412;5.540;2023-05-07T08:53:06;19.50;99.90
24262;DHT22;12385;51.412;5.540;2023-05-07T08:55:33;19.50;99.90
24262;DHT22;12385;51.412;5.540;2023-05-07T08:57:59;19.60;99.90
24262;DHT22;12385;51.412;5.540;2023-05-07T09:00:25;19.70;99.90
24262;DHT22;12385;51.412;5.540;2023-05-07T09:02:52;19.80;99.90
24262;DHT22;12385;51.412;5.540;2023-05-07T09:05:18;19.90;99.90
24262;DHT22;12385;51.412;5.540;2023-05-07T09:07:44;20.00;99.90
24262;DHT22;12385;51.412;5.540;2023-05-07T09:10:10;20.10;99.90
24262;DHT22;12385;51.412;5.540;2023-05-07T09:12:35;20.20;99.90
24262;DHT22;12385;51.412;5.540;2023-05-07T09:15:01;20.30;99.90
24262;DHT22;12385;51.412;5.540;2023-05-07T09:17:29;20.40;99.90
24262;DHT22;12385;51.412;5.540;2023-05-07T09:19:54;20.50;99.90
24262;DHT22;12385;51.412;5.540;2023-05-07T09:22:20;20.60;99.90
24262;DHT22;12385;51.412;5.540;2023-05-07T09:24:49;20.70;99.90
24262;DHT22;12385;51.412;5.540;2023-05-07T09:27:15;20.80;99.90
24262;DHT22;12385;51.412;5.540;2023-05-07T09:29:41;20.90;99.90
24262;DHT22;12385;51.412;5.540;2023-05-07T09:32:08;21.10;99.90
24262;DHT22;12385;51.412;5.540;2023-05-07T09:34:34;21.30;99.90
24262;DHT22;12385;51.412;5.540;2023-05-07T09:37:04;21.30;99.90
24262;DHT22;12385;51.412;5.540;2023-05-07T09:39:47;21.40;99.90
24262;DHT22;12385;51.412;5.540;2023-05-07T09:42:14;21.50;99.90
24262;DHT22;12385;51.412;5.540;2023-05-07T09:44:47;21.60;99.90
24262;DHT22;12385;51.412;5.540;2023-05-07T09:47:17;21.70;99.90
24262;DHT22;12385;51.412;5.540;2023-05-07T09:49:47;21.80;99.90
24262;DHT22;12385;51.412;5.540;2023-05-07T09:52:13;21.80;99.90
24262;DHT22;12385;51.412;5.540;2023-05-07T09:54:40;21.90;99.90
24262;DHT22;12385;51.412;5.540;2023-05-07T09:57:10;22.00;99.90
24262;DHT22;12385;51.412;5.540;2023-05-07T09:59:37;22.10;99.90
24262;DHT22;12385;51.412;5.540;2023-05-07T10:02:04;22.20;99.90
24262;DHT22;12385;51.412;5.540;2023-05-07T10:04:31;22.40;99.90
24262;DHT22;12385;51.412;5.540;2023-05-07T10:06:57;22.50;99.90
24262;DHT22;12385;51.412;5.540;2023-05-07T10:09:25;22.60;99.90
24262;DHT22;12385;51.412;5.540;2023-05-07T10:11:52;22.70;99.90
24262;DHT22;12385;51.412;5.540;2023-05-07T10:14:21;22.80;99.90
24262;DHT22;12385;51.412;5.540;2023-05-07T10:16:47;22.90;99.90
24262;DHT22;12385;51.412;5.540;2023-05-07T10:19:13;22.90;99.90
24262;DHT22;12385;51.412;5.540;2023-05-07T10:21:51;22.90;99.90
24262;DHT22;12385;51.412;5.540;2023-05-07T10:24:21;23.00;99.90
24262;DHT22;12385;51.412;5.540;2023-05-07T10:26:51;23.10;99.90
24262;DHT22;12385;51.412;5.540;2023-05-07T10:34:37;23.20;99.90
24262;DHT22;12385;51.412;5.540;2023-05-07T10:37:04;23.30;99.90
24262;DHT22;12385;51.412;5.540;2023-05-07T10:39:31;23.30;99.90
24262;DHT22;12385;51.412;5.540;2023-05-07T10:41:57;23.30;99.90
24262;DHT22;12385;51.412;5.540;2023-05-07T10:44:32;23.30;99.90
24262;DHT22;12385;51.412;5.540;2023-05-07T10:47:08;23.40;99.90
24262;DHT22;12385;51.412;5.540;2023-05-07T10:52:22;23.50;99.90
24262;DHT22;12385;51.412;5.540;2023-05-07T10:57:46;23.60;99.90
24262;DHT22;12385;51.412;5.540;2023-05-07T11:05:24;23.70;99.90
24262;DHT22;12385;51.412;5.540;2023-05-07T11:08:03;23.90;99.90
24262;DHT22;12385;51.412;5.540;2023-05-07T11:10:52;23.90;99.90
24262;DHT22;12385;51.412;5.540;2023-05-07T11:13:18;23.80;99.90
24262;DHT22;12385;51.412;5.540;2023-05-07T11:15:47;23.70;99.90
24262;DHT22;12385;51.412;5.540;2023-05-07T11:18:15;23.70;99.90
24262;DHT22;12385;51.412;5.540;2023-05-07T11:26:08;23.50;99.90
24262;DHT22;12385;51.412;5.540;2023-05-07T11:28:39;23.40;99.90
24262;DHT22;12385;51.412;5.540;2023-05-07T11:31:05;23.60;99.90
24262;DHT22;12385;51.412;5.540;2023-05-07T11:33:31;23.70;99.90
24262;DHT22;12385;51.412;5.540;2023-05-07T11:35:58;23.90;99.90
24262;DHT22;12385;51.412;5.540;2023-05-07T11:38:25;24.00;99.90
24262;DHT22;12385;51.412;5.540;2023-05-07T11:40:51;24.00;99.90
24262;DHT22;12385;51.412;5.540;2023-05-07T11:43:17;24.10;99.90
24262;DHT22;12385;51.412;5.540;2023-05-07T11:45:44;24.10;99.90
24262;DHT22;12385;51.412;5.540;2023-05-07T11:48:10;24.10;99.90
24262;DHT22;12385;51.412;5.540;2023-05-07T11:50:35;24.20;99.90
24262;DHT22;12385;51.412;5.540;2023-05-07T11:53:12;24.20;99.90
24262;DHT22;12385;51.412;5.540;2023-05-07T11:55:37;24.20;99.90
24262;DHT22;12385;51.412;5.540;2023-05-07T11:58:03;24.20;99.90
24262;DHT22;12385;51.412;5.540;2023-05-07T12:00:29;24.20;99.90
24262;DHT22;12385;51.412;5.540;2023-05-07T12:02:55;24.20;99.90
24262;DHT22;12385;51.412;5.540;2023-05-07T12:05:20;24.10;99.90
24262;DHT22;12385;51.412;5.540;2023-05-07T12:07:46;24.00;99.90
24262;DHT22;12385;51.412;5.540;2023-05-07T12:10:12;23.90;99.90
24262;DHT22;12385;51.412;5.540;2023-05-07T12:12:40;23.80;99.90
24262;DHT22;12385;51.412;5.540;2023-05-07T12:15:07;23.70;99.90
24262;DHT22;12385;51.412;5.540;2023-05-07T12:17:33;23.60;99.90
24262;DHT22;12385;51.412;5.540;2023-05-07T12:19:59;23.40;99.90
24262;DHT22;12385;51.412;5.540;2023-05-07T12:22:25;23.40;99.90
24262;DHT22;12385;51.412;5.540;2023-05-07T12:24:58;23.30;99.90
24262;DHT22;12385;51.412;5.540;2023-05-07T12:27:24;23.20;99.90
24262;DHT22;12385;51.412;5.540;2023-05-07T12:29:50;23.10;99.90
24262;DHT22;12385;51.412;5.540;2023-05-07T12:32:17;22.80;99.90
24262;DHT22;12385;51.412;5.540;2023-05-07T12:34:43;22.40;99.90
24262;DHT22;12385;51.412;5.540;2023-05-07T12:37:10;21.90;99.90
24262;DHT22;12385;51.412;5.540;2023-05-07T12:39:36;21.60;99.90
24262;DHT22;12385;51.412;5.540;2023-05-07T12:42:02;21.30;99.90
24262;DHT22;12385;51.412;5.540;2023-05-07T12:44:34;20.90;99.90
24262;DHT22;12385;51.412;5.540;2023-05-07T12:47:03;20.60;99.90
24262;DHT22;12385;51.412;5.540;2023-05-07T12:49:29;20.10;99.90
24262;DHT22;12385;51.412;5.540;2023-05-07T12:51:55;19.70;99.90
24262;DHT22;12385;51.412;5.540;2023-05-07T12:54:29;19.30;99.90
24262;DHT22;12385;51.412;5.540;2023-05-07T12:57:05;19.00;99.90
24262;DHT22;12385;51.412;5.540;2023-05-07T13:02:01;19.00;99.90
24262;DHT22;12385;51.412;5.540;2023-05-07T13:04:26;19.20;99.90
24262;DHT22;12385;51.412;5.540;2023-05-07T13:06:52;19.30;99.90
24262;DHT22;12385;51.412;5.540;2023-05-07T13:09:17;19.40;99.90
24262;DHT22;12385;51.412;5.540;2023-05-07T13:11:44;19.40;99.90
24262;DHT22;12385;51.412;5.540;2023-05-07T13:14:10;19.50;99.90
24262;DHT22;12385;51.412;5.540;2023-05-07T13:16:35;19.50;99.90
24262;DHT22;12385;51.412;5.540;2023-05-07T13:19:01;19.60;99.90
24262;DHT22;12385;51.412;5.540;2023-05-07T13:21:27;19.80;99.90
24262;DHT22;12385;51.412;5.540;2023-05-07T13:23:52;19.90;99.90
24262;DHT22;12385;51.412;5.540;2023-05-07T13:26:18;19.90;99.90
24262;DHT22;12385;51.412;5.540;2023-05-07T13:28:43;19.90;99.90
24262;DHT22;12385;51.412;5.540;2023-05-07T13:31:09;19.90;99.90
24262;DHT22;12385;51.412;5.540;2023-05-07T13:33:35;19.90;99.90
24262;DHT22;12385;51.412;5.540;2023-05-07T13:36:01;19.90;99.90
24262;DHT22;12385;51.412;5.540;2023-05-07T13:38:29;20.00;99.90
24262;DHT22;12385;51.412;5.540;2023-05-07T13:40:54;20.00;99.90
24262;DHT22;12385;51.412;5.540;2023-05-07T13:43:20;19.90;99.90
24262;DHT22;12385;51.412;5.540;2023-05-07T13:45:46;19.70;99.90
24262;DHT22;12385;51.412;5.540;2023-05-07T13:48:11;19.60;99.90
24262;DHT22;12385;51.412;5.540;2023-05-07T13:50:37;19.50;99.90
24262;DHT22;12385;51.412;5.540;2023-05-07T13:53:02;19.40;99.90
24262;DHT22;12385;51.412;5.540;2023-05-07T13:55:29;19.30;99.90
24262;DHT22;12385;51.412;5.540;2023-05-07T13:57:56;19.40;99.90
24262;DHT22;12385;51.412;5.540;2023-05-07T14:00:23;19.40;99.90
24262;DHT22;12385;51.412;5.540;2023-05-07T14:02:49;19.40;99.90
24262;DHT22;12385;51.412;5.540;2023-05-07T14:05:15;19.30;99.90
24262;DHT22;12385;51.412;5.540;2023-05-07T14:07:40;19.30;99.90
24262;DHT22;12385;51.412;5.540;2023-05-07T14:10:06;19.40;99.90
24262;DHT22;12385;51.412;5.540;2023-05-07T14:12:32;19.40;99.90
24262;DHT22;12385;51.412;5.540;2023-05-07T14:14:58;19.50;99.90
24262;DHT22;12385;51.412;5.540;2023-05-07T14:17:25;19.40;99.90
24262;DHT22;12385;51.412;5.540;2023-05-07T14:19:52;19.50;99.90
24262;DHT22;12385;51.412;5.540;2023-05-07T14:22:22;19.40;99.90
24262;DHT22;12385;51.412;5.540;2023-05-07T14:24:48;19.40;99.90
24262;DHT22;12385;51.412;5.540;2023-05-07T14:27:15;19.30;99.90
24262;DHT22;12385;51.412;5.540;2023-05-07T14:29:40;19.40;99.90
24262;DHT22;12385;51.412;5.540;2023-05-07T14:32:06;19.40;99.90
24262;DHT22;12385;51.412;5.540;2023-05-07T14:34:32;19.50;99.90
24262;DHT22;12385;51.412;5.540;2023-05-07T14:36:59;19.50;99.90
24262;DHT22;12385;51.412;5.540;2023-05-07T14:39:25;19.50;99.90
24262;DHT22;12385;51.412;5.540;2023-05-07T14:41:51;19.40;99.90
24262;DHT22;12385;51.412;5.540;2023-05-07T14:44:17;19.40;99.90
24262;DHT22;12385;51.412;5.540;2023-05-07T14:46:42;19.30;99.90
24262;DHT22;12385;51.412;5.540;2023-05-07T14:49:08;19.40;99.90
24262;DHT22;12385;51.412;5.540;2023-05-07T14:51:41;19.40;99.90
24262;DHT22;12385;51.412;5.540;2023-05-07T14:54:07;19.40;99.90
24262;DHT22;12385;51.412;5.540;2023-05-07T14:56:34;19.40;99.90
24262;DHT22;12385;51.412;5.540;2023-05-07T14:59:00;19.30;99.90
24262;DHT22;12385;51.412;5.540;2023-05-07T15:01:26;19.30;99.90
24262;DHT22;12385;51.412;5.540;2023-05-07T15:03:52;19.40;99.90
24262;DHT22;12385;51.412;5.540;2023-05-07T15:06:18;19.40;99.90
24262;DHT22;12385;51.412;5.540;2023-05-07T15:08:43;19.50;99.90
24262;DHT22;12385;51.412;5.540;2023-05-07T15:11:09;19.60;99.90
24262;DHT22;12385;51.412;5.540;2023-05-07T15:13:35;19.70;99.90
24262;DHT22;12385;51.412;5.540;2023-05-07T15:16:00;19.80;99.90
24262;DHT22;12385;51.412;5.540;2023-05-07T15:18:27;19.90;99.90
24262;DHT22;12385;51.412;5.540;2023-05-07T15:20:52;20.00;99.90
24262;DHT22;12385;51.412;5.540;2023-05-07T15:23:18;20.10;99.90
24262;DHT22;12385;51.412;5.540;2023-05-07T15:25:44;20.30;99.90
24262;DHT22;12385;51.412;5.540;2023-05-07T15:28:09;20.30;99.90
24262;DHT22;12385;51.412;5.540;2023-05-07T15:30:35;20.40;99.90
24262;DHT22;12385;51.412;5.540;2023-05-07T15:33:01;20.40;99.90
24262;DHT22;12385;51.412;5.540;2023-05-07T15:35:28;20.50;99.90
24262;DHT22;12385;51.412;5.540;2023-05-07T15:37:54;20.50;99.90
24262;DHT22;12385;51.412;5.540;2023-05-07T15:40:20;20.50;99.90
24262;DHT22;12385;51.412;5.540;2023-05-07T15:42:48;20.50;99.90
24262;DHT22;12385;51.412;5.540;2023-05-07T15:45:14;20.50;99.90
24262;DHT22;12385;51.412;5.540;2023-05-07T15:47:40;20.40;99.90
24262;DHT22;12385;51.412;5.540;2023-05-07T15:50:06;20.30;99.90